createdAt,value
2022-08-10T00:00:04.474Z,101332.06
2022-08-10T00:02:54.808Z,101337.78
2022-08-10T00:05:52.722Z,101334.06
2022-08-10T00:08:43.504Z,101337.31
2022-08-10T00:11:32.166Z,101331.50
2022-08-10T00:14:21.100Z,101337.44
2022-08-10T00:17:09.589Z,101348.34
2022-08-10T00:20:02.982Z,101336.41
2022-08-10T00:22:57.579Z,101333.09
2022-08-10T00:25:48.034Z,101340.28
2022-08-10T00:28:36.712Z,101337.56
2022-08-10T00:31:25.290Z,101338.78
2022-08-10T00:34:13.785Z,101336.28
2022-08-10T00:37:02.714Z,101340.81
2022-08-10T00:39:51.372Z,101336.28
2022-08-10T00:42:41.316Z,101340.34
2022-08-10T00:45:29.956Z,101340.72
2022-08-10T00:48:18.498Z,101337.78
2022-08-10T00:51:07.406Z,101337.16
2022-08-10T00:53:55.970Z,101336.78
2022-08-10T00:57:16.052Z,101330.78
2022-08-10T00:59:59.591Z,101339.84
2022-08-10T01:02:48.852Z,101335.13
2022-08-10T01:05:38.580Z,101339.00
2022-08-10T01:08:44.594Z,101338.53
2022-08-10T01:12:37.314Z,101343.47
2022-08-10T01:14:51.649Z,101344.50
2022-08-10T01:17:51.550Z,101337.28
2022-08-10T01:20:46.229Z,101328.47
2022-08-10T01:24:01.287Z,101328.34
2022-08-10T01:27:01.319Z,101331.28
2022-08-10T01:30:00.034Z,101329.91
2022-08-10T01:32:50.953Z,101326.44
2022-08-10T01:35:41.969Z,101327.81
2022-08-10T01:38:34.742Z,101330.88
2022-08-10T01:41:25.816Z,101329.34
2022-08-10T01:44:20.078Z,101328.91
2022-08-10T01:47:30.951Z,101332.16
2022-08-10T01:50:28.538Z,101333.81
2022-08-10T01:53:22.232Z,101341.22
2022-08-10T01:56:12.611Z,101332.91
2022-08-10T01:59:06.151Z,101339.03
2022-08-10T02:01:56.911Z,101343.16
2022-08-10T02:04:49.295Z,101337.00
2022-08-10T02:07:38.967Z,101339.78
2022-08-10T02:10:29.063Z,101349.22
2022-08-10T02:13:18.958Z,101353.16
2022-08-10T02:16:08.268Z,101346.78
2022-08-10T02:18:57.080Z,101352.16
2022-08-10T02:22:36.125Z,101346.34
2022-08-10T02:24:57.888Z,101352.06
2022-08-10T02:27:47.603Z,101345.41
2022-08-10T02:30:37.880Z,101343.34
2022-08-10T02:33:27.524Z,101341.06
2022-08-10T02:36:16.806Z,101341.63
2022-08-10T02:39:07.396Z,101346.50
2022-08-10T02:45:13.000Z,101348.56
2022-08-10T02:45:29.242Z,101351.78
2022-08-10T02:48:21.811Z,101347.06
2022-08-10T02:51:13.787Z,101345.69
2022-08-10T02:54:07.427Z,101347.75
2022-08-10T02:56:58.711Z,101350.22
2022-08-10T02:59:50.199Z,101343.56
2022-08-10T03:02:41.013Z,101350.94
2022-08-10T03:05:29.828Z,101350.38
2022-08-10T03:08:21.117Z,101346.94
2022-08-10T03:11:15.658Z,101351.09
2022-08-10T03:14:05.042Z,101353.63
2022-08-10T03:16:54.885Z,101344.25
2022-08-10T03:20:34.273Z,101341.22
2022-08-10T03:22:53.161Z,101340.44
2022-08-10T03:25:52.987Z,101347.84
2022-08-10T03:28:45.549Z,101343.63
2022-08-10T03:31:34.863Z,101350.47
2022-08-10T03:34:33.430Z,101343.34
2022-08-10T03:37:22.568Z,101344.31
2022-08-10T03:40:11.674Z,101349.91
2022-08-10T03:43:00.433Z,101347.91
2022-08-10T03:45:54.735Z,101355.50
2022-08-10T03:48:49.396Z,101349.28
2022-08-10T03:51:38.909Z,101356.38
2022-08-10T03:54:28.664Z,101359.69
2022-08-10T03:57:17.256Z,101360.09
2022-08-10T04:00:08.572Z,101361.19
2022-08-10T04:03:03.079Z,101359.53
2022-08-10T04:05:51.759Z,101365.09
2022-08-10T04:08:43.011Z,101373.97
2022-08-10T04:11:31.551Z,101373.75
2022-08-10T04:14:35.702Z,101386.91
2022-08-10T04:18:03.409Z,101379.03
2022-08-10T04:20:40.751Z,101388.00
2022-08-10T04:23:32.583Z,101391.69
2022-08-10T04:26:22.034Z,101383.38
2022-08-10T04:29:10.616Z,101388.06
2022-08-10T04:31:59.113Z,101383.09
2022-08-10T04:34:48.713Z,101387.34
2022-08-10T04:37:46.814Z,101387.44
2022-08-10T04:40:35.915Z,101383.75
2022-08-10T04:43:24.569Z,101396.09
2022-08-10T04:46:14.004Z,101390.19
2022-08-10T04:49:55.373Z,101387.81
2022-08-10T04:52:30.097Z,101394.81
2022-08-10T04:55:20.231Z,101394.25
2022-08-10T04:58:09.058Z,101395.56
2022-08-10T05:00:57.735Z,101389.66
2022-08-10T05:04:34.107Z,101401.47
2022-08-10T05:06:55.897Z,101399.81
2022-08-10T05:10:01.274Z,101404.16
2022-08-10T05:12:54.429Z,101402.41
2022-08-10T05:15:45.331Z,101400.38
2022-08-10T05:18:33.828Z,101405.00
2022-08-10T05:21:57.076Z,101406.66
2022-08-10T05:24:30.804Z,101399.25
2022-08-10T05:27:19.274Z,101397.22
2022-08-10T05:30:13.385Z,101403.41
2022-08-10T05:33:06.558Z,101406.81
2022-08-10T05:35:58.359Z,101404.75
2022-08-10T05:38:47.100Z,101406.44
2022-08-10T05:41:35.970Z,101401.06
2022-08-10T05:44:25.780Z,101397.94
2022-08-10T05:47:15.654Z,101398.13
2022-08-10T05:50:04.147Z,101405.97
2022-08-10T05:52:54.294Z,101398.13
2022-08-10T05:55:42.958Z,101401.06
2022-08-10T05:58:31.426Z,101400.31
2022-08-10T06:01:20.538Z,101403.66
2022-08-10T06:04:11.445Z,101401.59
2022-08-10T06:07:00.253Z,101404.09
2022-08-10T06:09:58.592Z,101402.06
2022-08-10T06:13:09.395Z,101400.47
2022-08-10T06:16:15.859Z,101402.13
2022-08-10T06:19:04.779Z,101405.06
2022-08-10T06:22:01.243Z,101404.72
2022-08-10T06:25:21.496Z,101403.97
2022-08-10T06:27:59.793Z,101400.66
2022-08-10T06:30:51.338Z,101397.97
2022-08-10T06:33:42.284Z,101393.88
2022-08-10T06:36:33.979Z,101392.50
2022-08-10T06:39:39.848Z,101396.81
2022-08-10T06:42:31.099Z,101398.66
2022-08-10T06:45:22.092Z,101402.03
2022-08-10T06:48:16.086Z,101408.19
2022-08-10T06:51:07.033Z,101407.78
2022-08-10T06:53:59.463Z,101416.47
2022-08-10T06:57:08.254Z,101415.72
2022-08-10T06:59:59.353Z,101412.03
2022-08-10T07:02:53.395Z,101412.84
2022-08-10T07:05:48.006Z,101406.72
2022-08-10T07:08:39.926Z,101412.09
2022-08-10T07:11:29.073Z,101413.56
2022-08-10T07:14:19.631Z,101402.63
2022-08-10T07:17:09.057Z,101401.81
2022-08-10T07:20:07.017Z,101413.81
2022-08-10T07:23:01.711Z,101404.72
2022-08-10T07:26:08.622Z,101407.69
2022-08-10T07:28:57.536Z,101408.94
2022-08-10T07:31:56.480Z,101407.75
2022-08-10T07:34:48.033Z,101406.50
2022-08-10T07:37:36.944Z,101402.16
2022-08-10T07:40:25.505Z,101406.13
2022-08-10T07:43:14.651Z,101397.06
2022-08-10T07:46:05.352Z,101407.78
2022-08-10T07:48:59.789Z,101398.72
2022-08-10T07:51:54.850Z,101396.69
2022-08-10T07:54:46.805Z,101399.59
2022-08-10T07:57:40.061Z,101400.00
2022-08-10T08:00:30.691Z,101392.59
2022-08-10T08:03:21.579Z,101387.84
2022-08-10T08:06:12.319Z,101383.13
2022-08-10T08:09:03.432Z,101386.84
2022-08-10T08:11:52.486Z,101388.09
2022-08-10T08:14:41.640Z,101377.16
2022-08-10T08:17:35.435Z,101380.69
2022-08-10T08:20:26.085Z,101383.19
2022-08-10T08:24:05.430Z,101382.78
2022-08-10T08:26:28.014Z,101379.25
2022-08-10T08:29:19.158Z,101378.22
2022-08-10T08:32:08.639Z,101378.66
2022-08-10T08:34:59.615Z,101384.47
2022-08-10T08:38:33.561Z,101382.81
2022-08-10T08:41:05.599Z,101387.78
2022-08-10T08:44:06.227Z,101382.44
2022-08-10T08:47:33.685Z,101378.34
2022-08-10T08:50:26.789Z,101372.97
2022-08-10T08:54:01.095Z,101376.28
2022-08-10T08:56:49.573Z,101371.97
2022-08-10T08:59:55.234Z,101365.38
2022-08-10T09:03:14.799Z,101361.25
2022-08-10T09:06:09.542Z,101361.47
2022-08-10T09:09:14.885Z,101360.88
2022-08-10T09:12:15.165Z,101352.81
2022-08-10T09:15:08.595Z,101354.47
2022-08-10T09:18:14.191Z,101357.78
2022-08-10T09:21:06.217Z,101347.66
2022-08-10T09:24:05.747Z,101357.84
2022-08-10T09:26:55.607Z,101347.28
2022-08-10T09:29:51.894Z,101352.28
2022-08-10T09:36:14.150Z,101341.72
2022-08-10T09:36:25.565Z,101341.34
2022-08-10T09:39:09.524Z,101342.16
2022-08-10T09:42:14.878Z,101336.78
2022-08-10T09:45:11.839Z,101333.06
2022-08-10T09:48:11.578Z,101324.41
2022-08-10T09:54:26.768Z,101324.44
2022-08-10T09:57:44.188Z,101333.53
2022-08-10T10:00:35.791Z,101329.38
2022-08-10T10:03:28.847Z,101327.72
2022-08-10T10:06:21.467Z,101331.25
2022-08-10T10:09:13.775Z,101328.78
2022-08-10T10:12:16.191Z,101328.38
2022-08-10T10:15:24.448Z,101315.78
2022-08-10T10:18:31.045Z,101305.47
2022-08-10T10:21:55.252Z,101309.81
2022-08-10T10:24:40.866Z,101314.16
2022-08-10T10:27:39.834Z,101310.22
2022-08-10T10:30:34.111Z,101304.63
2022-08-10T10:33:32.871Z,101299.25
2022-08-10T10:36:23.039Z,101298.84
2022-08-10T10:39:14.087Z,101294.75
2022-08-10T10:42:18.591Z,101295.19
2022-08-10T10:45:20.260Z,101293.09
2022-08-10T10:48:23.828Z,101291.03
2022-08-10T10:51:18.221Z,101292.69
2022-08-10T10:54:13.007Z,101290.59
2022-08-10T10:57:07.691Z,101287.31
2022-08-10T11:00:02.814Z,101291.03
2022-08-10T11:03:09.638Z,101286.28
2022-08-10T11:06:09.813Z,101283.16
2022-08-10T11:09:04.804Z,101287.94
2022-08-10T11:12:02.763Z,101273.03
2022-08-10T11:15:00.408Z,101278.03
2022-08-10T11:17:53.694Z,101277.19
2022-08-10T11:20:45.741Z,101279.06
2022-08-10T11:23:40.939Z,101272.41
2022-08-10T11:26:36.764Z,101272.41
2022-08-10T11:29:30.464Z,101256.28
2022-08-10T11:32:25.552Z,101272.84
2022-08-10T11:35:21.407Z,101259.19
2022-08-10T11:38:29.714Z,101252.38
2022-08-10T11:42:12.332Z,101258.78
2022-08-10T11:44:46.180Z,101247.19
2022-08-10T11:47:39.655Z,101258.38
2022-08-10T11:50:31.783Z,101254.66
2022-08-10T11:53:24.171Z,101252.59
2022-08-10T11:56:14.589Z,101253.00
2022-08-10T11:59:21.228Z,101244.53
2022-08-10T12:02:10.995Z,101247.22
2022-08-10T12:05:05.282Z,101243.31
2022-08-10T12:10:03.805Z,101241.03
2022-08-10T12:11:04.377Z,101244.56
2022-08-10T12:14:19.510Z,101241.47
2022-08-10T12:17:09.822Z,101237.75
2022-08-10T12:20:05.739Z,101235.06
2022-08-10T12:22:56.881Z,101236.91
2022-08-10T12:25:49.724Z,101234.84
2022-08-10T12:28:52.171Z,101232.34
2022-08-10T12:31:45.146Z,101226.97
2022-08-10T12:34:41.726Z,101230.28
2022-08-10T12:37:33.419Z,101228.03
2022-08-10T12:40:35.307Z,101219.94
2022-08-10T12:44:06.712Z,101221.00
2022-08-10T12:46:39.740Z,101218.72
2022-08-10T12:49:32.681Z,101222.41
2022-08-10T12:52:26.757Z,101216.66
2022-08-10T12:55:15.715Z,101217.03
2022-08-10T12:58:06.678Z,101206.69
2022-08-10T13:01:16.891Z,101214.78
2022-08-10T13:04:20.343Z,101207.75
2022-08-10T13:08:24.285Z,101210.44
2022-08-10T13:10:23.340Z,101197.19
2022-08-10T13:13:15.683Z,101209.38
2022-08-10T13:16:04.990Z,101196.38
2022-08-10T13:18:55.076Z,101200.09
2022-08-10T13:21:44.889Z,101189.75
2022-08-10T13:24:35.645Z,101190.16
2022-08-10T13:28:01.389Z,101195.34
2022-08-10T13:30:41.068Z,101189.34
2022-08-10T13:34:36.605Z,101194.72
2022-08-10T13:36:39.827Z,101185.81
2022-08-10T13:39:59.424Z,101179.41
2022-08-10T13:42:45.959Z,101184.38
2022-08-10T13:45:35.588Z,101184.56
2022-08-10T13:48:24.829Z,101176.50
2022-08-10T13:51:14.581Z,101173.63
2022-08-10T13:54:03.698Z,101172.34
2022-08-10T13:56:53.224Z,101164.94
2022-08-10T14:00:34.134Z,101155.19
2022-08-10T14:03:02.734Z,101154.97
2022-08-10T14:05:52.859Z,101149.59
2022-08-10T14:08:48.935Z,101151.03
2022-08-10T14:11:38.126Z,101148.53
2022-08-10T14:14:29.096Z,101143.75
2022-08-10T14:17:21.891Z,101141.28
2022-08-10T14:20:14.867Z,101133.81
2022-08-10T14:23:08.237Z,101130.94
2022-08-10T14:25:58.322Z,101128.03
2022-08-10T14:28:49.910Z,101128.03
2022-08-10T14:32:01.129Z,101127.63
2022-08-10T14:36:14.692Z,101122.63
2022-08-10T14:38:02.211Z,101127.19
2022-08-10T14:40:54.498Z,101124.50
2022-08-10T14:43:44.044Z,101121.19
2022-08-10T14:46:33.826Z,101117.06
2022-08-10T14:49:25.331Z,101122.63
2022-08-10T14:52:18.191Z,101121.41
2022-08-10T14:55:19.315Z,101117.69
2022-08-10T14:58:19.383Z,101117.28
2022-08-10T15:01:12.164Z,101112.13
2022-08-10T15:04:03.788Z,101114.81
2022-08-10T15:06:54.894Z,101116.47
2022-08-10T15:10:01.497Z,101106.09
2022-08-10T15:12:52.386Z,101106.09
2022-08-10T15:16:10.925Z,101115.22
2022-08-10T15:18:58.183Z,101102.81
2022-08-10T15:21:47.671Z,101108.63
2022-08-10T15:25:18.181Z,101104.88
2022-08-10T15:28:10.897Z,101103.22
2022-08-10T15:31:00.456Z,101099.31
2022-08-10T15:34:08.598Z,101092.03
2022-08-10T15:37:36.879Z,101089.34
2022-08-10T15:40:31.225Z,101088.75
2022-08-10T15:43:25.750Z,101092.47
2022-08-10T15:46:17.820Z,101087.09
2022-08-10T15:49:09.815Z,101082.31
2022-08-10T15:52:06.891Z,101077.56
2022-08-10T15:54:57.967Z,101073.44
2022-08-10T15:57:50.754Z,101082.94
2022-08-10T16:00:42.473Z,101076.75
2022-08-10T16:03:36.882Z,101072.19
2022-08-10T16:06:30.926Z,101062.66
2022-08-10T16:10:24.212Z,101065.97
2022-08-10T16:12:34.054Z,101065.53
2022-08-10T16:15:24.662Z,101052.69
2022-08-10T16:18:14.341Z,101062.59
2022-08-10T16:21:07.613Z,101056.19
2022-08-10T16:24:15.020Z,101051.41
2022-08-10T16:27:07.428Z,101051.84
2022-08-10T16:29:59.278Z,101047.03
2022-08-10T16:32:50.688Z,101043.13
2022-08-10T16:35:40.436Z,101042.09
2022-08-10T16:38:29.272Z,101043.53
2022-08-10T16:42:03.124Z,101044.34
2022-08-10T16:44:31.315Z,101043.31
2022-08-10T16:47:24.073Z,101037.69
2022-08-10T16:50:23.872Z,101042.03
2022-08-10T16:53:14.319Z,101033.53
2022-08-10T16:56:04.912Z,101033.94
2022-08-10T16:58:56.943Z,101040.97
2022-08-10T17:01:51.362Z,101036.44
2022-08-10T17:04:43.378Z,101041.81
2022-08-10T17:07:33.742Z,101033.56
2022-08-10T17:10:23.115Z,101032.47
2022-08-10T17:13:12.993Z,101033.47
2022-08-10T17:16:04.660Z,101021.97
2022-08-10T17:18:53.843Z,101038.13
2022-08-10T17:21:51.403Z,101040.84
2022-08-10T17:24:44.835Z,101038.16
2022-08-10T17:28:04.318Z,101036.91
2022-08-10T17:30:58.136Z,101039.41
2022-08-10T17:33:47.840Z,101036.31
2022-08-10T17:36:37.913Z,101035.69
2022-08-10T17:39:31.511Z,101036.13
2022-08-10T17:42:23.667Z,101038.19
2022-08-10T17:45:46.230Z,101028.22
2022-08-10T17:48:30.447Z,101035.69
2022-08-10T17:51:19.393Z,101026.59
2022-08-10T17:54:10.545Z,101030.94
2022-08-10T17:57:01.376Z,101030.94
2022-08-10T17:59:53.643Z,101032.78
2022-08-10T18:02:44.904Z,101039.81
2022-08-10T18:05:34.356Z,101028.22
2022-08-10T18:08:25.909Z,101042.72
2022-08-10T18:11:18.402Z,101041.88
2022-08-10T18:14:09.269Z,101046.03
2022-08-10T18:16:59.439Z,101038.38
2022-08-10T18:19:52.903Z,101044.59
2022-08-10T18:22:45.863Z,101050.22
2022-08-10T18:25:36.027Z,101058.50
2022-08-10T18:28:25.025Z,101056.41
2022-08-10T18:31:19.034Z,101072.56
2022-08-10T18:34:13.131Z,101063.44
2022-08-10T18:37:02.728Z,101062.84
2022-08-10T18:39:52.163Z,101058.94
2022-08-10T18:42:49.671Z,101066.16
2022-08-10T18:45:38.447Z,101065.97
2022-08-10T18:48:35.255Z,101074.66
2022-08-10T18:51:27.911Z,101071.56
2022-08-10T18:54:24.184Z,101077.97
2022-08-10T18:57:35.882Z,101085.03
2022-08-10T19:00:27.322Z,101080.91
2022-08-10T19:03:25.553Z,101082.56
2022-08-10T19:06:22.978Z,101077.59
2022-08-10T19:09:45.758Z,101079.69
2022-08-10T19:12:41.236Z,101088.34
2022-08-10T19:15:31.929Z,101080.09
2022-08-10T19:18:32.156Z,101084.25
2022-08-10T19:21:23.070Z,101085.91
2022-08-10T19:24:20.134Z,101086.31
2022-08-10T19:27:14.362Z,101080.13
2022-08-10T19:30:11.860Z,101087.56
2022-08-10T19:33:21.428Z,101084.25
2022-08-10T19:36:13.840Z,101085.72
2022-08-10T19:39:06.316Z,101087.59
2022-08-10T19:41:59.680Z,101087.94
2022-08-10T19:45:07.566Z,101091.69
2022-08-10T19:48:00.022Z,101091.06
2022-08-10T19:50:53.965Z,101087.94
2022-08-10T19:53:51.528Z,101089.59
2022-08-10T19:56:47.843Z,101086.91
2022-08-10T20:00:16.646Z,101085.91
2022-08-10T20:03:07.996Z,101092.97
2022-08-10T20:06:19.222Z,101088.19
2022-08-10T20:09:14.769Z,101085.06
2022-08-10T20:12:05.559Z,101084.25
2022-08-10T20:15:02.657Z,101089.63
2022-08-10T20:17:56.511Z,101083.84
2022-08-10T20:20:49.675Z,101089.22
2022-08-10T20:23:55.326Z,101086.31
2022-08-10T20:26:47.973Z,101087.16
2022-08-10T20:29:58.570Z,101079.28
2022-08-10T20:32:52.508Z,101083.63
2022-08-10T20:35:51.906Z,101087.53
2022-08-10T20:38:45.460Z,101079.28
2022-08-10T20:41:46.648Z,101080.53
2022-08-10T20:44:47.059Z,101091.28
2022-08-10T20:47:54.651Z,101100.00
2022-08-10T20:50:47.784Z,101098.31
2022-08-10T20:53:44.850Z,101098.13
2022-08-10T20:56:38.272Z,101092.53
2022-08-10T21:00:03.838Z,101091.09
2022-08-10T21:02:58.905Z,101098.72
2022-08-10T21:06:05.321Z,101096.47
2022-08-10T21:09:00.210Z,101097.94
2022-08-10T21:11:57.774Z,101099.16
2022-08-10T21:14:55.766Z,101095.84
2022-08-10T21:17:55.815Z,101100.59
2022-08-10T21:20:59.552Z,101111.13
2022-08-10T21:23:57.024Z,101104.31
2022-08-10T21:27:08.145Z,101105.34
2022-08-10T21:30:09.035Z,101110.31
2022-08-10T21:32:59.463Z,101110.50
2022-08-10T21:35:51.410Z,101110.25
2022-08-10T21:38:51.614Z,101109.63
2022-08-10T21:42:03.391Z,101112.31
2022-08-10T21:45:17.722Z,101106.34
2022-08-10T21:48:34.161Z,101107.78
2022-08-10T21:52:01.304Z,101109.47
2022-08-10T21:55:14.286Z,101110.25
2022-08-10T21:58:27.579Z,101111.09
2022-08-10T22:01:40.427Z,101111.09
2022-08-10T22:04:46.883Z,101120.59
2022-08-10T22:07:54.694Z,101124.31
2022-08-10T22:11:07.075Z,101119.94
2022-08-10T22:14:13.793Z,101122.25
2022-08-10T22:18:03.815Z,101122.00
2022-08-10T22:20:51.506Z,101116.63
2022-08-10T22:24:19.324Z,101106.50
2022-08-10T22:27:47.042Z,101108.16
2022-08-10T22:31:28.919Z,101110.22
2022-08-10T22:34:33.419Z,101105.66
2022-08-10T22:37:48.003Z,101113.91
2022-08-10T22:40:54.210Z,101118.47
2022-08-10T22:44:02.151Z,101123.19
2022-08-10T22:47:09.797Z,101116.78
2022-08-10T22:49:57.332Z,101110.59
2022-08-10T22:53:03.757Z,101120.50
2022-08-10T22:56:14.134Z,101125.03
2022-08-10T22:59:04.056Z,101120.47
2022-08-10T23:02:07.669Z,101118.81
2022-08-10T23:04:59.876Z,101118.19
2022-08-10T23:07:51.346Z,101115.91
2022-08-10T23:10:43.055Z,101121.28
2022-08-10T23:13:36.208Z,101118.31
2022-08-10T23:16:47.739Z,101129.47
2022-08-10T23:19:41.058Z,101128.44
2022-08-10T23:22:34.234Z,101124.94
2022-08-10T23:25:25.045Z,101126.16
2022-08-10T23:28:38.252Z,101119.97
2022-08-10T23:32:00.817Z,101115.84
2022-08-10T23:34:38.859Z,101121.22
2022-08-10T23:37:30.871Z,101124.91
2022-08-10T23:40:20.385Z,101129.00
2022-08-10T23:43:09.390Z,101119.94
2022-08-10T23:45:59.678Z,101113.31
2022-08-10T23:48:54.009Z,101118.47
2022-08-10T23:51:54.869Z,101114.94
2022-08-10T23:54:49.960Z,101118.84
2022-08-10T23:57:42.541Z,101116.56
